createdAt,value
2023-03-19T05:12:32.672Z,4.00
2023-03-19T05:15:32.749Z,4.00
2023-03-19T05:16:32.623Z,8.00
2023-03-19T05:17:32.612Z,8.00
2023-03-19T05:18:32.603Z,8.00
2023-03-19T05:19:32.594Z,12.00
2023-03-19T05:20:32.886Z,12.00
2023-03-19T05:21:32.586Z,12.00
2023-03-19T05:22:32.559Z,16.00
2023-03-19T05:24:32.537Z,16.00
2023-03-19T05:26:32.517Z,20.00
2023-03-19T05:28:32.503Z,24.00
2023-03-19T05:29:32.484Z,28.00
2023-03-19T05:31:32.542Z,32.00
2023-03-19T05:32:32.489Z,32.00
2023-03-19T05:33:32.476Z,28.00
2023-03-19T05:34:32.438Z,24.00
2023-03-19T05:35:32.460Z,20.00
2023-03-19T05:36:32.413Z,20.00
2023-03-19T05:37:32.418Z,24.00
2023-03-19T05:38:32.389Z,20.00
2023-03-19T05:39:32.379Z,20.00
2023-03-19T05:40:32.585Z,24.00
2023-03-19T05:43:32.336Z,32.00
2023-03-19T05:46:32.346Z,36.00
2023-03-19T05:47:32.293Z,40.00
2023-03-19T05:48:32.286Z,48.00
2023-03-19T05:49:32.273Z,52.00
2023-03-19T05:50:32.555Z,60.00
2023-03-19T05:52:32.239Z,76.00
2023-03-19T05:53:32.251Z,92.00
2023-03-19T05:54:32.221Z,104.00
2023-03-19T05:55:32.205Z,120.00
2023-03-19T05:56:32.221Z,132.00
2023-03-19T05:57:32.198Z,148.00
2023-03-19T06:00:32.442Z,204.00
2023-03-19T06:01:32.153Z,236.00
2023-03-19T06:02:32.147Z,288.00
2023-03-19T06:04:32.157Z,420.00
2023-03-19T06:05:32.113Z,468.00
2023-03-19T06:06:32.095Z,464.00
2023-03-19T06:08:32.075Z,452.00
2023-03-19T06:09:32.227Z,532.00
2023-03-19T06:10:32.389Z,588.00
2023-03-19T06:11:32.037Z,596.00
2023-03-19T06:13:32.021Z,628.00
2023-03-19T06:15:32.462Z,524.00
2023-03-19T06:16:32.095Z,544.00
2023-03-19T06:17:31.981Z,556.00
2023-03-19T06:18:31.966Z,508.00
2023-03-19T06:19:31.952Z,444.00
2023-03-19T06:20:32.430Z,420.00
2023-03-19T06:21:31.934Z,436.00
2023-03-19T06:22:31.923Z,472.00
2023-03-19T06:23:31.912Z,500.00
2023-03-19T06:24:31.906Z,536.00
2023-03-19T06:26:31.881Z,620.00
2023-03-19T06:27:31.870Z,672.00
2023-03-19T06:28:31.860Z,724.00
2023-03-19T06:30:32.039Z,800.00
2023-03-19T06:31:31.892Z,828.00
2023-03-19T06:32:31.885Z,872.00
2023-03-19T06:33:31.810Z,916.00
2023-03-19T06:34:31.801Z,936.00
2023-03-19T06:35:31.850Z,956.00
2023-03-19T06:36:31.786Z,948.00
2023-03-19T06:37:31.766Z,900.00
2023-03-19T06:38:31.763Z,860.00
2023-03-19T06:39:31.749Z,856.00
2023-03-19T06:40:31.863Z,876.00
2023-03-19T06:41:31.746Z,940.00
2023-03-19T06:42:31.770Z,1016.00
2023-03-19T06:43:31.707Z,1112.00
2023-03-19T06:44:31.698Z,1240.00
2023-03-19T06:46:31.682Z,1528.00
2023-03-19T06:47:31.676Z,1696.00
2023-03-19T06:48:31.671Z,1836.00
2023-03-19T06:49:31.646Z,1920.00
2023-03-19T06:50:31.820Z,1996.00
2023-03-19T06:51:31.622Z,2076.00
2023-03-19T06:52:31.624Z,2128.00
2023-03-19T06:53:31.604Z,2128.00
2023-03-19T06:54:31.602Z,2056.00
2023-03-19T06:55:31.590Z,1856.00
2023-03-19T06:56:31.577Z,1536.00
2023-03-19T06:57:31.588Z,1236.00
2023-03-19T06:58:31.556Z,1100.00
2023-03-19T06:59:31.563Z,1012.00
2023-03-19T07:00:31.620Z,968.00
2023-03-19T07:01:31.579Z,944.00
2023-03-19T07:02:31.508Z,888.00
2023-03-19T07:03:31.504Z,864.00
2023-03-19T07:04:31.511Z,856.00
2023-03-19T07:06:31.470Z,936.00
2023-03-19T07:07:31.460Z,944.00
2023-03-19T07:08:31.442Z,972.00
2023-03-19T07:09:31.437Z,1068.00
2023-03-19T07:10:31.493Z,1224.00
2023-03-19T07:11:33.165Z,1356.00
2023-03-19T07:12:31.399Z,1508.00
2023-03-19T07:13:31.414Z,1708.00
2023-03-19T07:14:31.381Z,1792.00
2023-03-19T07:15:31.369Z,1768.00
2023-03-19T07:17:31.348Z,1592.00
2023-03-19T07:18:31.338Z,1416.00
2023-03-19T07:19:31.337Z,1384.00
2023-03-19T07:20:31.378Z,1356.00
2023-03-19T07:21:31.307Z,1364.00
2023-03-19T07:23:31.286Z,1724.00
2023-03-19T07:24:31.281Z,1864.00
2023-03-19T07:25:31.267Z,2024.00
2023-03-19T07:26:31.250Z,2148.00
2023-03-19T07:28:31.230Z,2380.00
2023-03-19T07:29:31.305Z,2524.00
2023-03-19T07:30:31.324Z,2596.00
2023-03-19T07:31:31.282Z,2712.00
2023-03-19T07:32:31.197Z,2652.00
2023-03-19T07:33:31.182Z,2664.00
2023-03-19T07:34:31.164Z,2664.00
2023-03-19T07:35:31.199Z,2596.00
2023-03-19T07:36:31.154Z,2520.00
2023-03-19T07:37:31.140Z,2420.00
2023-03-19T07:38:31.135Z,2400.00
2023-03-19T07:39:31.113Z,2448.00
2023-03-19T07:40:31.101Z,2628.00
2023-03-19T07:41:31.089Z,2976.00
2023-03-19T07:42:31.081Z,3392.00
2023-03-19T07:43:31.068Z,3592.00
2023-03-19T07:44:31.059Z,3460.00
2023-03-19T07:45:31.069Z,3496.00
2023-03-19T07:46:31.046Z,3560.00
2023-03-19T07:47:31.039Z,3528.00
2023-03-19T07:48:31.015Z,3120.00
2023-03-19T07:49:31.006Z,2556.00
2023-03-19T07:50:31.008Z,2352.00
2023-03-19T07:51:30.987Z,2424.00
2023-03-19T07:52:30.976Z,2476.00
2023-03-19T07:54:30.961Z,2484.00
2023-03-19T07:55:30.945Z,2720.00
2023-03-19T07:56:30.934Z,2920.00
2023-03-19T07:57:30.928Z,2992.00
2023-03-19T07:58:30.908Z,2888.00
2023-03-19T07:59:30.900Z,2844.00
2023-03-19T08:00:30.885Z,3032.00
2023-03-19T08:01:30.912Z,3280.00
2023-03-19T08:02:31.131Z,3240.00
2023-03-19T08:03:30.856Z,3408.00
2023-03-19T08:05:30.835Z,4520.00
2023-03-19T08:06:30.825Z,4160.00
2023-03-19T08:07:30.816Z,3708.00
2023-03-19T08:08:30.802Z,3308.00
2023-03-19T08:09:30.793Z,3004.00
2023-03-19T08:11:30.780Z,3136.00
2023-03-19T08:12:30.760Z,3032.00
2023-03-19T08:13:30.749Z,2932.00
2023-03-19T08:14:30.816Z,2724.00
2023-03-19T08:15:30.794Z,2712.00
2023-03-19T08:16:30.747Z,2724.00
2023-03-19T08:17:30.726Z,2832.00
2023-03-19T08:18:30.695Z,3096.00
2023-03-19T08:19:30.684Z,3004.00
2023-03-19T08:20:30.675Z,2688.00
2023-03-19T08:21:30.664Z,2412.00
2023-03-19T08:22:30.653Z,2460.00
2023-03-19T08:23:30.643Z,2572.00
2023-03-19T08:25:30.625Z,2028.00
2023-03-19T08:26:30.610Z,1664.00
2023-03-19T08:27:30.603Z,1500.00
2023-03-19T08:28:30.587Z,1536.00
2023-03-19T08:30:30.567Z,1592.00
2023-03-19T08:31:30.564Z,1740.00
2023-03-19T08:32:30.683Z,1916.00
2023-03-19T08:33:30.554Z,1904.00
2023-03-19T08:34:30.525Z,1864.00
2023-03-19T08:35:30.546Z,1952.00
2023-03-19T08:36:30.506Z,2120.00
2023-03-19T08:37:30.494Z,2224.00
2023-03-19T08:38:30.487Z,2240.00
2023-03-19T08:39:30.475Z,2264.00
2023-03-19T08:40:30.460Z,2136.00
2023-03-19T08:41:30.451Z,1960.00
2023-03-19T08:42:30.444Z,1888.00
2023-03-19T08:43:30.431Z,2108.00
2023-03-19T08:44:30.423Z,2564.00
2023-03-19T08:45:30.410Z,3032.00
2023-03-19T08:46:30.433Z,3200.00
2023-03-19T08:47:30.388Z,3212.00
2023-03-19T08:48:30.376Z,3284.00
2023-03-19T08:49:30.384Z,3508.00
2023-03-19T08:50:30.353Z,3576.00
2023-03-19T08:51:30.343Z,3588.00
2023-03-19T08:52:30.332Z,3684.00
2023-03-19T08:53:30.331Z,3904.00
2023-03-19T08:55:30.305Z,4596.00
2023-03-19T08:56:30.295Z,4736.00
2023-03-19T08:57:30.280Z,4856.00
2023-03-19T08:59:32.032Z,4704.00
2023-03-19T09:00:30.248Z,4888.00
2023-03-19T09:02:30.226Z,6192.00
2023-03-19T09:04:30.266Z,7732.00
2023-03-19T09:05:30.372Z,8184.00
2023-03-19T09:06:30.182Z,8384.00
2023-03-19T09:09:30.151Z,8820.00
2023-03-19T09:10:30.139Z,8992.00
2023-03-19T09:11:30.217Z,9012.00
2023-03-19T09:12:30.119Z,8872.00
2023-03-19T09:13:30.110Z,8404.00
2023-03-19T09:14:30.096Z,8236.00
2023-03-19T09:15:30.090Z,8576.00
2023-03-19T09:16:30.191Z,9160.00
2023-03-19T09:17:30.068Z,10008.00
2023-03-19T09:18:30.054Z,10564.00
2023-03-19T09:19:30.044Z,10900.00
2023-03-19T09:20:30.032Z,11224.00
2023-03-19T09:21:30.042Z,11468.00
2023-03-19T09:22:30.011Z,11832.00
2023-03-19T09:23:30.004Z,12300.00
2023-03-19T09:24:29.994Z,12928.00
2023-03-19T09:25:29.981Z,13552.00
2023-03-19T09:26:29.975Z,14212.00
2023-03-19T09:28:29.951Z,16576.00
2023-03-19T09:29:29.939Z,17728.00
2023-03-19T09:30:29.927Z,18752.00
2023-03-19T09:31:30.175Z,19904.00
2023-03-19T09:32:29.907Z,22400.00
2023-03-19T09:33:29.897Z,19520.00
2023-03-19T09:34:29.887Z,19520.00
2023-03-19T09:35:29.879Z,19744.00
2023-03-19T09:36:29.867Z,19904.00
2023-03-19T09:37:29.875Z,19968.00
2023-03-19T09:38:29.847Z,19904.00
2023-03-19T09:39:29.837Z,19072.00
2023-03-19T09:40:29.824Z,18272.00
2023-03-19T09:41:29.817Z,17760.00
2023-03-19T09:42:29.805Z,17536.00
2023-03-19T09:43:29.796Z,18400.00
2023-03-19T09:44:29.792Z,19616.00
2023-03-19T09:45:29.789Z,20352.00
2023-03-19T09:46:29.803Z,20672.00
2023-03-19T09:47:29.749Z,20288.00
2023-03-19T09:48:29.734Z,19520.00
2023-03-19T09:49:29.726Z,17792.00
2023-03-19T09:50:29.725Z,16224.00
2023-03-19T09:51:29.705Z,14800.00
2023-03-19T09:52:29.693Z,14040.00
2023-03-19T09:55:29.662Z,13396.00
2023-03-19T09:56:29.650Z,13104.00
2023-03-19T09:57:29.641Z,12820.00
2023-03-19T09:58:29.628Z,12704.00
2023-03-19T09:59:29.622Z,12864.00
2023-03-19T10:00:29.608Z,13256.00
2023-03-19T10:01:29.642Z,13508.00
2023-03-19T10:02:29.584Z,13792.00
2023-03-19T10:03:29.575Z,14148.00
2023-03-19T10:05:29.554Z,14900.00
2023-03-19T10:06:29.566Z,15304.00
2023-03-19T10:07:29.538Z,15904.00
2023-03-19T10:08:29.523Z,16576.00
2023-03-19T10:09:29.527Z,17440.00
2023-03-19T10:10:29.508Z,18528.00
2023-03-19T10:11:29.492Z,18400.00
2023-03-19T10:12:29.499Z,16960.00
2023-03-19T10:13:29.466Z,17248.00
2023-03-19T10:14:29.454Z,16128.00
2023-03-19T10:16:29.465Z,17728.00
2023-03-19T10:17:29.422Z,17888.00
2023-03-19T10:18:29.413Z,19392.00
2023-03-19T10:19:29.512Z,17344.00
2023-03-19T10:20:29.401Z,16736.00
2023-03-19T10:21:29.379Z,17632.00
2023-03-19T10:22:29.369Z,14336.00
2023-03-19T10:23:29.356Z,11200.00
2023-03-19T10:24:29.345Z,8932.00
2023-03-19T10:25:29.354Z,8156.00
2023-03-19T10:26:29.326Z,8560.00
2023-03-19T10:27:29.324Z,9304.00
2023-03-19T10:28:29.308Z,9872.00
2023-03-19T10:30:29.284Z,10008.00
2023-03-19T10:31:29.339Z,9760.00
2023-03-19T10:32:29.259Z,9652.00
2023-03-19T10:33:29.251Z,9464.00
2023-03-19T10:34:29.238Z,9400.00
2023-03-19T10:35:29.230Z,10652.00
2023-03-19T10:36:29.217Z,12108.00
2023-03-19T10:37:29.208Z,12644.00
2023-03-19T10:38:29.198Z,12504.00
2023-03-19T10:39:29.195Z,11676.00
2023-03-19T10:40:29.174Z,10568.00
2023-03-19T10:42:31.263Z,12008.00
2023-03-19T10:43:29.152Z,12784.00
2023-03-19T10:46:29.157Z,15336.00
2023-03-19T10:48:29.094Z,10688.00
2023-03-19T10:49:29.085Z,10776.00
2023-03-19T10:50:29.069Z,12088.00
2023-03-19T10:51:29.056Z,11696.00
2023-03-19T10:52:29.052Z,11244.00
2023-03-19T10:53:29.039Z,12540.00
2023-03-19T10:54:29.024Z,15428.00
2023-03-19T10:55:29.014Z,17536.00
2023-03-19T10:56:29.006Z,16512.00
2023-03-19T10:57:29.011Z,14132.00
2023-03-19T10:58:29.001Z,12980.00
2023-03-19T10:59:28.974Z,14180.00
2023-03-19T11:00:28.959Z,14772.00
2023-03-19T11:01:29.078Z,14652.00
2023-03-19T11:02:28.939Z,16160.00
2023-03-19T11:03:29.003Z,17632.00
2023-03-19T11:04:28.921Z,14216.00
2023-03-19T11:05:31.673Z,10672.00
2023-03-19T11:06:28.895Z,9064.00
2023-03-19T11:09:29.893Z,10572.00
2023-03-19T11:11:28.847Z,12236.00
2023-03-19T11:12:28.841Z,12672.00
2023-03-19T11:13:28.842Z,12648.00
2023-03-19T11:14:28.810Z,12320.00
2023-03-19T11:15:28.800Z,11812.00
2023-03-19T11:16:28.825Z,11544.00
2023-03-19T11:17:28.781Z,11492.00
2023-03-19T11:18:28.771Z,11152.00
2023-03-19T11:19:28.753Z,10956.00
2023-03-19T11:20:28.745Z,10788.00
2023-03-19T11:22:28.722Z,10316.00
2023-03-19T11:24:28.701Z,9776.00
2023-03-19T11:25:28.708Z,9868.00
2023-03-19T11:26:28.698Z,9940.00
2023-03-19T11:27:28.704Z,10088.00
2023-03-19T11:28:28.677Z,10212.00
2023-03-19T11:29:28.667Z,10240.00
2023-03-19T11:30:28.638Z,10220.00
2023-03-19T11:32:28.658Z,10136.00
2023-03-19T11:33:28.603Z,10080.00
2023-03-19T11:34:28.594Z,10084.00
2023-03-19T11:35:28.582Z,9936.00
2023-03-19T11:36:28.573Z,9660.00
2023-03-19T11:37:28.643Z,9428.00
2023-03-19T11:38:28.555Z,9012.00
2023-03-19T11:39:28.552Z,8860.00
2023-03-19T11:41:28.516Z,8088.00
2023-03-19T11:42:28.510Z,7596.00
2023-03-19T11:43:28.502Z,7096.00
2023-03-19T11:44:28.488Z,6660.00
2023-03-19T11:45:28.496Z,6196.00
2023-03-19T11:46:28.535Z,5744.00
2023-03-19T11:47:28.454Z,5328.00
2023-03-19T11:49:28.434Z,4692.00
2023-03-19T11:50:28.426Z,4424.00
2023-03-19T11:51:28.419Z,4208.00
2023-03-19T11:52:28.409Z,4004.00
2023-03-19T11:53:28.394Z,3936.00
2023-03-19T11:54:28.385Z,3876.00
2023-03-19T11:55:28.376Z,3900.00
2023-03-19T11:56:28.367Z,3972.00
2023-03-19T11:57:28.352Z,4012.00
2023-03-19T11:58:28.344Z,4036.00
2023-03-19T11:59:28.332Z,4084.00
2023-03-19T12:00:28.321Z,4124.00
2023-03-19T12:01:28.327Z,4148.00
2023-03-19T12:02:28.387Z,4204.00
2023-03-19T12:03:28.346Z,4304.00
2023-03-19T12:04:28.280Z,4440.00
2023-03-19T12:05:28.268Z,4636.00
2023-03-19T12:06:28.258Z,4880.00
2023-03-19T12:08:28.237Z,5568.00
2023-03-19T12:11:28.210Z,6348.00
2023-03-19T12:12:28.200Z,6564.00
2023-03-19T12:13:28.183Z,6872.00
2023-03-19T12:14:28.174Z,7316.00
2023-03-19T12:15:28.180Z,8032.00
2023-03-19T12:16:28.182Z,9164.00
2023-03-19T12:17:30.256Z,10808.00
2023-03-19T12:18:28.133Z,12916.00
2023-03-19T12:19:28.123Z,15096.00
2023-03-19T12:20:28.109Z,17152.00
2023-03-19T12:21:28.097Z,18976.00
2023-03-19T12:22:28.089Z,22432.00
2023-03-19T12:23:28.075Z,50912.00
2023-03-19T12:24:28.067Z,95712.00
2023-03-19T12:25:28.055Z,106720.00
2023-03-19T12:26:28.047Z,150624.00
2023-03-19T12:27:28.046Z,105920.00
2023-03-19T12:28:28.025Z,102208.00
2023-03-19T12:29:28.012Z,99008.00
2023-03-19T12:30:28.002Z,93312.00
2023-03-19T12:31:28.046Z,89792.00
2023-03-19T12:33:27.982Z,86496.00
2023-03-19T12:34:27.957Z,89600.00
2023-03-19T12:35:27.944Z,94304.00
2023-03-19T12:36:27.937Z,97440.00
2023-03-19T12:37:27.929Z,25792.00
2023-03-19T12:38:27.914Z,93344.00
2023-03-19T12:39:27.902Z,65856.00
2023-03-19T12:41:27.880Z,83232.00
2023-03-19T12:42:27.871Z,45984.00
2023-03-19T12:43:27.875Z,40448.00
2023-03-19T12:44:27.851Z,38400.00
2023-03-19T12:45:27.836Z,35040.00
2023-03-19T12:47:27.818Z,100448.00
2023-03-19T12:48:27.825Z,105056.00
2023-03-19T12:49:27.830Z,66752.00
2023-03-19T12:50:27.785Z,60224.00
2023-03-19T12:51:27.774Z,33344.00
2023-03-19T12:52:27.764Z,34208.00
2023-03-19T12:54:27.743Z,28256.00
2023-03-19T12:55:27.733Z,26752.00
2023-03-19T12:56:27.721Z,27680.00
2023-03-19T12:57:27.708Z,27904.00
2023-03-19T12:58:27.701Z,27968.00
2023-03-19T12:59:27.687Z,32768.00
2023-03-19T13:00:27.684Z,26592.00
2023-03-19T13:01:27.699Z,22784.00
2023-03-19T13:02:27.822Z,20192.00
2023-03-19T13:03:27.645Z,18592.00
2023-03-19T13:04:27.758Z,17696.00
2023-03-19T13:05:27.647Z,17216.00
2023-03-19T13:07:27.606Z,15088.00
2023-03-19T13:08:27.597Z,14516.00
2023-03-19T13:09:27.582Z,14532.00
2023-03-19T13:10:27.573Z,14100.00
2023-03-19T13:11:27.563Z,13092.00
2023-03-19T13:12:27.563Z,11804.00
2023-03-19T13:13:30.542Z,11120.00
2023-03-19T13:14:27.530Z,10704.00
2023-03-19T13:15:27.529Z,10848.00
2023-03-19T13:16:27.528Z,11596.00
2023-03-19T13:17:27.502Z,12240.00
2023-03-19T13:18:27.488Z,12952.00
2023-03-19T13:19:27.474Z,13780.00
2023-03-19T13:20:27.469Z,15048.00
2023-03-19T13:21:27.474Z,16448.00
2023-03-19T13:22:27.451Z,17536.00
2023-03-19T13:23:27.438Z,17152.00
2023-03-19T13:24:27.424Z,16704.00
2023-03-19T13:25:27.418Z,16096.00
2023-03-19T13:26:27.403Z,15228.00
2023-03-19T13:27:27.400Z,14532.00
2023-03-19T13:28:27.381Z,14132.00
2023-03-19T13:29:27.371Z,14124.00
2023-03-19T13:30:27.363Z,14424.00
2023-03-19T13:31:27.450Z,15088.00
2023-03-19T13:32:27.339Z,16160.00
2023-03-19T13:33:27.326Z,18528.00
2023-03-19T13:34:27.325Z,23744.00
2023-03-19T13:35:27.325Z,23232.00
2023-03-19T13:36:27.295Z,21600.00
2023-03-19T13:37:27.302Z,21952.00
2023-03-19T13:38:27.275Z,21824.00
2023-03-19T13:39:27.263Z,21664.00
2023-03-19T13:40:27.254Z,22112.00
2023-03-19T13:41:27.239Z,23200.00
2023-03-19T13:42:27.230Z,26976.00
2023-03-19T13:43:28.606Z,23840.00
2023-03-19T13:44:27.207Z,22240.00
2023-03-19T13:45:27.198Z,21760.00
2023-03-19T13:46:27.216Z,21760.00
2023-03-19T13:47:27.181Z,22464.00
2023-03-19T13:48:27.167Z,23776.00
2023-03-19T13:49:27.152Z,27456.00
2023-03-19T13:50:27.186Z,41888.00
2023-03-19T13:51:27.133Z,84960.00
2023-03-19T13:52:27.123Z,76480.00
2023-03-19T13:53:27.129Z,85376.00
2023-03-19T13:55:27.087Z,76832.00
2023-03-19T13:56:30.254Z,81632.00
2023-03-19T13:57:27.069Z,64032.00
2023-03-19T13:58:27.056Z,53792.00
2023-03-19T13:59:27.178Z,44480.00
2023-03-19T14:00:27.039Z,50976.00
2023-03-19T14:01:27.022Z,30592.00
2023-03-19T14:02:27.011Z,23360.00
2023-03-19T14:04:26.994Z,23008.00
2023-03-19T14:05:26.981Z,25728.00
2023-03-19T14:06:27.003Z,30240.00
2023-03-19T14:07:26.961Z,36704.00
2023-03-19T14:08:26.951Z,33056.00
2023-03-19T14:09:26.958Z,38976.00
2023-03-19T14:10:26.939Z,37888.00
2023-03-19T14:11:26.916Z,47488.00
2023-03-19T14:13:26.896Z,59360.00
2023-03-19T14:14:26.888Z,52224.00
2023-03-19T14:15:26.880Z,56320.00
2023-03-19T14:16:26.948Z,37184.00
2023-03-19T14:17:27.438Z,64416.00
2023-03-19T14:22:26.802Z,63168.00
2023-03-19T14:23:38.370Z,60288.00
2023-03-19T14:24:58.061Z,35232.00
2023-03-19T14:25:27.817Z,20192.00
2023-03-19T14:26:26.759Z,17888.00
2023-03-19T14:27:26.750Z,38784.00
2023-03-19T14:28:26.736Z,50496.00
2023-03-19T14:29:26.734Z,23296.00
2023-03-19T14:30:26.718Z,23328.00
2023-03-19T14:31:26.821Z,44288.00
2023-03-19T14:32:26.694Z,65120.00
2023-03-19T14:34:26.673Z,61376.00
2023-03-19T14:35:26.669Z,57056.00
2023-03-19T14:36:26.653Z,58112.00
2023-03-19T14:37:26.641Z,32576.00
2023-03-19T14:38:26.634Z,17824.00
2023-03-19T14:39:26.621Z,17888.00
2023-03-19T14:40:26.608Z,14320.00
2023-03-19T14:41:26.620Z,12500.00
2023-03-19T14:42:26.598Z,10672.00
2023-03-19T14:43:26.576Z,9416.00
2023-03-19T14:44:26.572Z,8672.00
2023-03-19T14:45:26.676Z,8208.00
2023-03-19T14:46:26.548Z,7812.00
2023-03-19T14:47:26.535Z,7632.00
2023-03-19T14:48:26.535Z,7604.00
2023-03-19T14:49:26.514Z,7564.00
2023-03-19T14:50:26.505Z,7480.00
2023-03-19T14:51:26.492Z,7308.00
2023-03-19T14:52:26.484Z,7244.00
2023-03-19T14:53:26.470Z,7316.00
2023-03-19T14:55:26.451Z,7752.00
2023-03-19T14:56:26.443Z,7868.00
2023-03-19T14:57:26.451Z,7728.00
2023-03-19T14:58:26.419Z,7448.00
2023-03-19T14:59:26.407Z,7112.00
2023-03-19T15:00:26.398Z,6788.00
2023-03-19T15:01:26.432Z,6512.00
2023-03-19T15:02:26.386Z,6196.00
2023-03-19T15:03:26.380Z,5876.00
2023-03-19T15:04:26.445Z,5616.00
2023-03-19T15:07:26.334Z,4732.00
2023-03-19T15:08:26.316Z,4392.00
2023-03-19T15:10:26.292Z,3792.00
2023-03-19T15:11:26.281Z,3528.00
2023-03-19T15:12:26.278Z,3300.00
2023-03-19T15:13:26.284Z,3108.00
2023-03-19T15:14:26.252Z,2940.00
2023-03-19T15:15:26.237Z,2800.00
2023-03-19T15:16:26.275Z,2688.00
2023-03-19T15:17:26.225Z,2592.00
2023-03-19T15:18:26.205Z,2500.00
2023-03-19T15:19:26.192Z,2416.00
2023-03-19T15:20:26.189Z,2316.00
2023-03-19T15:21:26.172Z,2220.00
2023-03-19T15:22:26.161Z,2132.00
2023-03-19T15:23:27.906Z,2052.00
2023-03-19T15:24:26.143Z,1984.00
2023-03-19T15:25:26.139Z,1932.00
2023-03-19T15:26:26.122Z,1884.00
2023-03-19T15:27:26.110Z,1844.00
2023-03-19T15:28:26.099Z,1804.00
2023-03-19T15:29:26.110Z,1776.00
2023-03-19T15:30:26.080Z,1756.00
2023-03-19T15:31:33.372Z,1748.00
2023-03-19T15:32:48.320Z,1760.00
2023-03-19T15:33:39.000Z,1800.00
2023-03-19T15:34:27.176Z,1816.00
2023-03-19T15:35:26.034Z,1828.00
2023-03-19T15:36:26.015Z,1840.00
2023-03-19T15:38:25.995Z,1844.00
2023-03-19T15:39:25.984Z,1860.00
2023-03-19T15:40:25.968Z,1892.00
2023-03-19T15:41:25.959Z,1932.00
2023-03-19T15:42:25.948Z,1980.00
2023-03-19T15:43:25.937Z,2052.00
2023-03-19T15:44:25.924Z,2108.00
2023-03-19T15:45:25.936Z,2152.00
2023-03-19T15:46:25.926Z,2188.00
2023-03-19T15:47:25.908Z,2236.00
2023-03-19T15:48:25.885Z,2276.00
2023-03-19T15:49:25.873Z,2332.00
2023-03-19T15:50:25.880Z,2404.00
2023-03-19T15:51:25.852Z,2488.00
2023-03-19T15:52:25.837Z,2588.00
2023-03-19T15:53:25.829Z,2720.00
2023-03-19T15:54:25.869Z,2832.00
2023-03-19T15:55:25.808Z,2804.00
2023-03-19T15:56:25.797Z,2916.00
2023-03-19T15:57:25.788Z,2948.00
2023-03-19T15:58:25.784Z,3128.00
2023-03-19T15:59:25.765Z,3316.00
2023-03-19T16:00:25.751Z,3528.00
2023-03-19T16:01:25.871Z,3728.00
2023-03-19T16:02:25.781Z,3864.00
2023-03-19T16:03:25.725Z,3892.00
2023-03-19T16:04:25.707Z,4004.00
2023-03-19T16:05:25.697Z,4072.00
2023-03-19T16:06:27.181Z,4260.00
2023-03-19T16:07:25.694Z,4444.00
2023-03-19T16:08:25.662Z,4588.00
2023-03-19T16:10:25.648Z,4876.00
2023-03-19T16:11:25.633Z,5028.00
2023-03-19T16:12:25.624Z,5188.00
2023-03-19T16:13:25.727Z,5312.00
2023-03-19T16:14:25.618Z,5332.00
2023-03-19T16:15:25.588Z,5236.00
2023-03-19T16:16:25.660Z,5076.00
2023-03-19T16:17:25.733Z,4824.00
2023-03-19T16:18:25.552Z,4496.00
2023-03-19T16:19:25.545Z,4152.00
2023-03-19T16:21:25.530Z,3524.00
2023-03-19T16:22:25.525Z,3304.00
2023-03-19T16:23:25.498Z,3148.00
2023-03-19T16:24:25.486Z,2920.00
2023-03-19T16:25:25.502Z,2720.00
2023-03-19T16:26:25.462Z,2552.00
2023-03-19T16:27:25.454Z,2424.00
2023-03-19T16:28:25.481Z,2332.00
2023-03-19T16:29:25.431Z,2252.00
2023-03-19T16:30:25.500Z,2196.00
2023-03-19T16:31:25.496Z,2112.00
2023-03-19T16:32:25.407Z,2020.00
2023-03-19T16:33:25.408Z,1932.00
2023-03-19T16:34:25.380Z,1888.00
2023-03-19T16:35:25.365Z,1820.00
2023-03-19T16:36:25.351Z,1764.00
2023-03-19T16:37:25.341Z,1716.00
2023-03-19T16:38:25.327Z,1664.00
2023-03-19T16:39:25.324Z,1612.00
2023-03-19T16:40:25.344Z,1572.00
2023-03-19T16:41:25.305Z,1560.00
2023-03-19T16:42:25.286Z,1544.00
2023-03-19T16:43:25.276Z,1512.00
2023-03-19T16:45:25.255Z,1396.00
2023-03-19T16:46:25.266Z,1328.00
2023-03-19T16:47:25.255Z,1248.00
2023-03-19T16:48:25.226Z,1180.00
2023-03-19T16:49:25.237Z,1112.00
2023-03-19T16:50:25.203Z,1056.00
2023-03-19T16:51:25.191Z,996.00
2023-03-19T16:52:25.179Z,940.00
2023-03-19T16:53:25.171Z,876.00
2023-03-19T16:54:25.159Z,828.00
2023-03-19T16:55:25.151Z,792.00
2023-03-19T16:57:25.140Z,740.00
2023-03-19T16:58:25.119Z,716.00
2023-03-19T17:00:25.097Z,656.00
2023-03-19T17:01:25.137Z,628.00
2023-03-19T17:02:25.078Z,596.00
2023-03-19T17:03:25.066Z,564.00
2023-03-19T17:04:25.078Z,532.00
2023-03-19T17:05:25.068Z,488.00
2023-03-19T17:06:25.048Z,448.00
2023-03-19T17:07:25.025Z,408.00
2023-03-19T17:08:25.013Z,376.00
2023-03-19T17:09:25.004Z,340.00
2023-03-19T17:10:24.995Z,316.00
2023-03-19T17:11:24.999Z,292.00
2023-03-19T17:12:24.973Z,284.00
2023-03-19T17:13:24.963Z,280.00
2023-03-19T17:14:24.950Z,288.00
2023-03-19T17:15:24.944Z,292.00
2023-03-19T17:16:24.945Z,304.00
2023-03-19T17:17:24.921Z,324.00
2023-03-19T17:18:24.911Z,340.00
2023-03-19T17:19:24.918Z,352.00
2023-03-19T17:20:24.891Z,364.00
2023-03-19T17:21:24.900Z,364.00
2023-03-19T17:24:24.842Z,324.00
2023-03-19T17:26:24.821Z,276.00
2023-03-19T17:27:24.814Z,256.00
2023-03-19T17:28:24.802Z,240.00
2023-03-19T17:29:24.804Z,228.00
2023-03-19T17:30:26.500Z,212.00
2023-03-19T17:31:24.896Z,196.00
2023-03-19T17:32:24.763Z,180.00
2023-03-19T17:33:24.751Z,164.00
2023-03-19T17:34:24.738Z,152.00
2023-03-19T17:35:24.732Z,136.00
2023-03-19T17:36:24.720Z,124.00
2023-03-19T17:38:24.698Z,104.00
2023-03-19T17:40:24.685Z,88.00
2023-03-19T17:41:24.679Z,84.00
2023-03-19T17:42:24.655Z,80.00
2023-03-19T17:43:24.654Z,72.00
2023-03-19T17:44:24.636Z,68.00
2023-03-19T17:45:24.629Z,64.00
2023-03-19T17:46:24.698Z,56.00
2023-03-19T17:47:24.605Z,52.00
2023-03-19T17:48:24.595Z,44.00
2023-03-19T17:49:24.591Z,40.00
2023-03-19T17:50:24.571Z,32.00
2023-03-19T17:51:24.563Z,28.00
2023-03-19T17:52:24.549Z,28.00
2023-03-19T17:53:24.561Z,24.00
2023-03-19T17:54:24.525Z,20.00
2023-03-19T17:55:24.548Z,16.00
2023-03-19T17:57:24.500Z,12.00
2023-03-19T17:58:24.488Z,12.00
2023-03-19T17:59:24.479Z,12.00
2023-03-19T18:01:24.602Z,8.00
2023-03-19T18:02:24.448Z,4.00
2023-03-19T18:03:24.437Z,4.00
2023-03-19T18:04:24.502Z,4.00
2023-03-19T18:05:24.420Z,4.00
2023-03-19T18:07:24.398Z,4.00
2023-03-19T18:08:24.383Z,4.00
